Tervuren Meer informatie Tervuren


Bezoek onze andere website:

Meteotemplate

Home Weather Station

Saratoga


U vindt ons ook hier:

UK Metoffice

European Weather Network

WeatherCloud

Weather Underground

Benelux Weer Netwerk

AWEKAS

Citizen Weather Observer Program (CWOP)


Apparatuur in gebruik:

Davis VP2

Meteobridge


METAR rapporten vliegvelden

   
EBBR - Brussels
Gewijzigd: Feb 24 2018 5:50 pm
Helder  
Helder  
   Wind: ONO 24.1 km/h
Wind: ONO 24.1 km/h
Temperatuur: 2°C
Voelt als: -3°C
Dauwpunt: -7°C
Vochtigheid: 52%
Barometer: 1022 mb
Zicht: meer dan 10 km
Bewolking: Helder
EBBR 241650Z 07013KT CAVOK 02/M07 Q1022 NOSIG
EBAW - Antwerp
Gewijzigd: Feb 24 2018 6:20 pm
Helder  
Helder  
   Wind: ONO 25.9 km/h<br />Gust to 25.9 km/h
Wind: ONO 25.9 km/h
Gust to 25.9 km/h
Temperatuur: 2°C
Voelt als: -3°C
Dauwpunt: -6°C
Vochtigheid: 56%
Barometer: 1023 mb
Zicht: meer dan 10 km
Bewolking: Helder
EBAW 241720Z 07014G24KT CAVOK 02/M06 Q1023 NOSIG
EHBK - Maastricht
Gewijzigd: Feb 24 2018 5:55 pm
Gedeeltelijk bewolkt  
Gedeeltelijk bewolkt  
   Wind: NO 25.9 km/h
Wind: NO 25.9 km/h
Temperatuur: 1°C
Voelt als: -4°C
Dauwpunt: -6°C
Vochtigheid: 60%
Barometer: 1022 mb
Bewolking: Gedeeltelijk bewolkt
Zicht: meer dan 10 km
Bewolking: Gedeeltelijk bewolkt
EHBK 241655Z AUTO 05014KT 9999 NSC 01/M06 Q1022 NOSIG
EDLV - Nijmegen
Gewijzigd: Feb 24 2018 6:20 pm
Helder  
Helder  
   Wind: ONO 9.3 km/h
Wind: ONO 9.3 km/h
Temperatuur: 1°C
Voelt als: -2°C
Dauwpunt: -7°C
Vochtigheid: 56%
Barometer: 1026 mb
Zicht: meer dan 10 km
Bewolking: Helder
EDLV 241720Z 06005KT 350V130 CAVOK 01/M07 Q1026
EHRD - Rotterdam
Gewijzigd: Feb 24 2018 5:55 pm
Helder  
Helder  
   Wind: ONO 33.3 km/h
Wind: ONO 33.3 km/h
Temperatuur: 2°C
Voelt als: -4°C
Dauwpunt: -5°C
Vochtigheid: 60%
Barometer: 1025 mb
Bewolking: Helder
Zicht: meer dan 10 km
Bewolking: Helder
EHRD 241655Z AUTO 07018KT 9999 NCD 02/M05 Q1025 NOSIG
 

Script ontwikkeld door  Saratoga-weather.org Aangepast voor de template door  Weerstation Leuven